Terminal Aerodrome Forecast
Issued by NWS Northern Indiana

Home | Current Version | Previous Version | Text Only | Print | Product List | Glossary On
Versions: 1 2 3 4 5 6 7 8 9 10 11 12 13 14 15 16
000
FTUS43 KIWX 060500
TAFFWA
TAF
KFWA 060536Z 0606/0706 VRB03KT P6SM SKC
     FM061000 24005KT P6SM FEW250
     FM061600 21013G20KT P6SM SCT120 BKN250
     FM062300 20012G19KT P6SM SCT020 BKN080=

USA.gov is the U.S. government's official web portal to all federal, state and local government web resources and services.